메인 페이지
METAR-TAF:

METAR-TAF

공항 :

멜버른 공항

멜버른, 오스트레일리아

위도: 37-40-24S, 경도: 144-50-36E, 고도: 132m

현재 날씨관측

예보는 34분 전, 04:30시(UTC)에 발표되었습니다.
15kt
온도 17°C
습도 48%
기압 1023 hPa
시정 10km 이상
고도 4000ft 상공 구름 조금
고도 19000ft 상공 구름 보통

METAR: YMML 150430Z 17015KT 9999 FEW040 SCT190 17/06 Q1023 NOSIG

시각: 16:04 (05:04 UTC)

예보

예보는 6 시간 1분 전, 23:03시(UTC)에 발표되었습니다.
예보 대상 시간: 15일 00시부터 16일 06시까지 (UTC)
15kt, 순간 최대 풍속 25kt
시정 10km 이상
고도 4000ft 상공 구름 조금
15일 0900시부터 (UTC)
12kt
시정 10km 이상
1500m 미만 상공 구름 및 적란운 없음
15일 1600시부터 (UTC)
8kt
시정 10km 이상
고도 1500ft 상공 구름 보통
15일 2100시부터 (UTC)
6kt
시정 10km 이상
고도 2000ft 상공 구름 조금
16일 0200시부터 (UTC)
15kt, 순간 최대 풍속 25kt
시정 10km 이상
고도 4000ft 상공 구름 보통

TAF: YMML 142303Z 1500/1606 18015G25KT 9999 FEW040 FM150900 18012KT CAVOK FM151600 26008KT 9999 SCT015 FM152100 28006KT 9999 FEW020 FM160200 18015G25KT 9999 SCT040

4,000개 이상의 공항 관측 자료 및 예보 (METAR 및 TAF 보고).

지도상에서 검색 가능한 기상관측소가 노란 점과 빨간 점으로 표시되어 있습니다.

기상관측소 명을 보려면 표시 위로 마우스를 이동하세요.

날씨 관측과 예보를 보려면 클릭하세요.

지도 변경 : 확대하려면 엑스 표시가 있는 녹색 버튼, 축소하려면 빼기 표시가 있는 녹색 버튼, 다음 페이지의 지도를 보려면 녹색 화살표를 클릭하세요.


METAR-TAF: